sensor_id;sensor_type;location;lat;lon;timestamp;pressure;altitude;pressure_sealevel;temperature;humidity
24788;BME280;12883;52.662;5.196;2023-06-14T00:01:43;101681.47;;;19.62;96.03
24788;BME280;12883;52.662;5.196;2023-06-14T00:04:10;101680.63;;;19.61;94.83
24788;BME280;12883;52.662;5.196;2023-06-14T00:06:36;101692.25;;;19.62;94.57
24788;BME280;12883;52.662;5.196;2023-06-14T00:09:01;101665.91;;;19.52;93.00
24788;BME280;12883;52.662;5.196;2023-06-14T00:11:26;101672.09;;;19.53;92.33
24788;BME280;12883;52.662;5.196;2023-06-14T00:13:52;101683.22;;;19.56;92.87
24788;BME280;12883;52.662;5.196;2023-06-14T00:16:18;101646.97;;;19.36;90.69
24788;BME280;12883;52.662;5.196;2023-06-14T00:18:44;101649.31;;;19.32;90.80
24788;BME280;12883;52.662;5.196;2023-06-14T00:21:11;101681.94;;;19.47;90.78
24788;BME280;12883;52.662;5.196;2023-06-14T00:23:37;101689.91;;;19.42;90.24
24788;BME280;12883;52.662;5.196;2023-06-14T00:26:02;101679.47;;;19.46;88.55
24788;BME280;12883;52.662;5.196;2023-06-14T00:28:28;101686.75;;;19.45;87.69
24788;BME280;12883;52.662;5.196;2023-06-14T00:30:53;101677.50;;;19.41;87.97
24788;BME280;12883;52.662;5.196;2023-06-14T00:33:18;101686.97;;;19.44;86.96
24788;BME280;12883;52.662;5.196;2023-06-14T00:35:44;101678.31;;;19.42;87.38
24788;BME280;12883;52.662;5.196;2023-06-14T00:38:09;101682.78;;;19.36;87.70
24788;BME280;12883;52.662;5.196;2023-06-14T00:40:34;101679.84;;;19.38;86.91
24788;BME280;12883;52.662;5.196;2023-06-14T00:43:00;101681.13;;;19.35;86.10
24788;BME280;12883;52.662;5.196;2023-06-14T00:45:25;101682.09;;;19.29;86.30
24788;BME280;12883;52.662;5.196;2023-06-14T00:47:51;101691.69;;;19.25;86.59
24788;BME280;12883;52.662;5.196;2023-06-14T00:50:20;101666.41;;;19.26;85.38
24788;BME280;12883;52.662;5.196;2023-06-14T00:52:47;101684.53;;;19.31;86.20
24788;BME280;12883;52.662;5.196;2023-06-14T00:55:12;101685.22;;;19.26;86.79
24788;BME280;12883;52.662;5.196;2023-06-14T00:57:38;101606.22;;;18.75;86.89
24788;BME280;12883;52.662;5.196;2023-06-14T01:00:05;101666.59;;;19.13;85.85
24788;BME280;12883;52.662;5.196;2023-06-14T01:02:37;101683.69;;;19.19;86.42
24788;BME280;12883;52.662;5.196;2023-06-14T01:05:03;101688.06;;;19.20;87.17
24788;BME280;12883;52.662;5.196;2023-06-14T01:07:46;101675.59;;;18.96;88.13
24788;BME280;12883;52.662;5.196;2023-06-14T01:10:45;101695.03;;;19.09;89.44
24788;BME280;12883;52.662;5.196;2023-06-14T01:13:25;101689.06;;;19.07;89.23
24788;BME280;12883;52.662;5.196;2023-06-14T01:15:53;101689.53;;;19.04;90.48
24788;BME280;12883;52.662;5.196;2023-06-14T01:18:19;101680.19;;;18.95;89.95
24788;BME280;12883;52.662;5.196;2023-06-14T01:20:47;101680.19;;;18.95;91.39
24788;BME280;12883;52.662;5.196;2023-06-14T01:23:24;101695.13;;;18.91;91.93
24788;BME280;12883;52.662;5.196;2023-06-14T01:25:50;101650.31;;;18.62;93.24
24788;BME280;12883;52.662;5.196;2023-06-14T01:28:21;101691.28;;;18.87;94.49
24788;BME280;12883;52.662;5.196;2023-06-14T01:30:50;101676.84;;;18.70;95.25
24788;BME280;12883;52.662;5.196;2023-06-14T01:33:20;101686.56;;;18.71;95.23
24788;BME280;12883;52.662;5.196;2023-06-14T01:35:51;101681.03;;;18.66;95.71
24788;BME280;12883;52.662;5.196;2023-06-14T01:38:19;101690.06;;;18.60;97.11
24788;BME280;12883;52.662;5.196;2023-06-14T01:40:45;101686.16;;;18.56;97.21
24788;BME280;12883;52.662;5.196;2023-06-14T01:43:12;101683.59;;;18.50;95.73
24788;BME280;12883;52.662;5.196;2023-06-14T01:45:40;101691.56;;;18.56;96.28
24788;BME280;12883;52.662;5.196;2023-06-14T01:48:05;101645.63;;;18.28;96.84
24788;BME280;12883;52.662;5.196;2023-06-14T01:50:31;101697.84;;;18.50;96.95
24788;BME280;12883;52.662;5.196;2023-06-14T01:52:57;101699.94;;;18.48;96.50
24788;BME280;12883;52.662;5.196;2023-06-14T01:55:22;101680.28;;;18.48;95.63
24788;BME280;12883;52.662;5.196;2023-06-14T01:57:50;101694.44;;;18.43;96.27
24788;BME280;12883;52.662;5.196;2023-06-14T02:00:15;101689.53;;;18.40;96.91
24788;BME280;12883;52.662;5.196;2023-06-14T02:02:41;101694.28;;;18.38;96.64
24788;BME280;12883;52.662;5.196;2023-06-14T02:05:06;101681.91;;;18.37;96.08
24788;BME280;12883;52.662;5.196;2023-06-14T02:07:32;101691.00;;;18.36;96.64
24788;BME280;12883;52.662;5.196;2023-06-14T02:09:58;101683.94;;;18.24;97.13
24788;BME280;12883;52.662;5.196;2023-06-14T02:12:23;101687.78;;;18.28;98.08
24788;BME280;12883;52.662;5.196;2023-06-14T02:14:49;101697.72;;;18.27;98.77
24788;BME280;12883;52.662;5.196;2023-06-14T02:17:14;101687.41;;;18.24;98.57
24788;BME280;12883;52.662;5.196;2023-06-14T02:19:40;101685.88;;;18.17;98.23
24788;BME280;12883;52.662;5.196;2023-06-14T02:22:05;101679.09;;;18.14;99.23
24788;BME280;12883;52.662;5.196;2023-06-14T02:24:31;101686.31;;;18.14;100.00
24788;BME280;12883;52.662;5.196;2023-06-14T02:26:56;101683.41;;;18.15;100.00
24788;BME280;12883;52.662;5.196;2023-06-14T02:29:22;101698.00;;;18.08;100.00
24788;BME280;12883;52.662;5.196;2023-06-14T02:31:47;101691.81;;;18.07;100.00
24788;BME280;12883;52.662;5.196;2023-06-14T02:34:14;101688.06;;;18.08;100.00
24788;BME280;12883;52.662;5.196;2023-06-14T02:36:41;101683.22;;;17.99;100.00
24788;BME280;12883;52.662;5.196;2023-06-14T02:39:08;101651.63;;;17.83;100.00
24788;BME280;12883;52.662;5.196;2023-06-14T02:41:36;101722.25;;;18.01;100.00
24788;BME280;12883;52.662;5.196;2023-06-14T02:44:02;101687.78;;;17.98;100.00
24788;BME280;12883;52.662;5.196;2023-06-14T02:46:27;101680.06;;;17.90;100.00
24788;BME280;12883;52.662;5.196;2023-06-14T02:48:52;101698.75;;;17.97;100.00
24788;BME280;12883;52.662;5.196;2023-06-14T02:51:18;101688.09;;;17.90;100.00
24788;BME280;12883;52.662;5.196;2023-06-14T02:53:43;101694.50;;;17.89;100.00
24788;BME280;12883;52.662;5.196;2023-06-14T02:56:09;101688.91;;;17.91;100.00
24788;BME280;12883;52.662;5.196;2023-06-14T02:58:36;101693.31;;;17.85;100.00
24788;BME280;12883;52.662;5.196;2023-06-14T03:01:02;101689.59;;;17.86;100.00
24788;BME280;12883;52.662;5.196;2023-06-14T03:03:29;101687.97;;;17.85;100.00
24788;BME280;12883;52.662;5.196;2023-06-14T03:05:54;101686.75;;;17.81;100.00
24788;BME280;12883;52.662;5.196;2023-06-14T03:08:20;101699.59;;;17.79;100.00
24788;BME280;12883;52.662;5.196;2023-06-14T03:10:46;101675.41;;;17.61;100.00
24788;BME280;12883;52.662;5.196;2023-06-14T03:13:12;101692.56;;;17.60;100.00
24788;BME280;12883;52.662;5.196;2023-06-14T03:15:37;101692.66;;;17.72;100.00
24788;BME280;12883;52.662;5.196;2023-06-14T03:18:04;101707.50;;;17.74;100.00
24788;BME280;12883;52.662;5.196;2023-06-14T03:20:29;101706.75;;;17.67;100.00
24788;BME280;12883;52.662;5.196;2023-06-14T03:23:01;101693.25;;;17.56;100.00
24788;BME280;12883;52.662;5.196;2023-06-14T03:25:27;101716.00;;;17.71;100.00
24788;BME280;12883;52.662;5.196;2023-06-14T03:27:55;101713.75;;;17.68;100.00
24788;BME280;12883;52.662;5.196;2023-06-14T03:30:20;101712.56;;;17.64;100.00
24788;BME280;12883;52.662;5.196;2023-06-14T03:32:45;101727.03;;;17.63;100.00
24788;BME280;12883;52.662;5.196;2023-06-14T03:35:11;101711.56;;;17.59;100.00
24788;BME280;12883;52.662;5.196;2023-06-14T03:37:43;101725.66;;;17.54;100.00
24788;BME280;12883;52.662;5.196;2023-06-14T03:40:08;101738.59;;;17.64;100.00
24788;BME280;12883;52.662;5.196;2023-06-14T03:42:34;101737.78;;;17.63;100.00
24788;BME280;12883;52.662;5.196;2023-06-14T03:44:59;101724.19;;;17.58;100.00
24788;BME280;12883;52.662;5.196;2023-06-14T03:47:24;101739.72;;;17.56;100.00
24788;BME280;12883;52.662;5.196;2023-06-14T03:49:50;101734.47;;;17.61;100.00
24788;BME280;12883;52.662;5.196;2023-06-14T03:52:15;101739.25;;;17.59;100.00
24788;BME280;12883;52.662;5.196;2023-06-14T03:54:42;101730.44;;;17.52;100.00
24788;BME280;12883;52.662;5.196;2023-06-14T03:57:09;101741.94;;;17.59;100.00
24788;BME280;12883;52.662;5.196;2023-06-14T03:59:35;101746.34;;;17.54;100.00
24788;BME280;12883;52.662;5.196;2023-06-14T04:02:01;101704.00;;;17.31;100.00
24788;BME280;12883;52.662;5.196;2023-06-14T04:04:27;101722.31;;;17.34;100.00
24788;BME280;12883;52.662;5.196;2023-06-14T04:06:54;101744.09;;;17.51;100.00
24788;BME280;12883;52.662;5.196;2023-06-14T04:09:19;101758.13;;;17.53;100.00
24788;BME280;12883;52.662;5.196;2023-06-14T04:11:44;101757.28;;;17.52;100.00
24788;BME280;12883;52.662;5.196;2023-06-14T04:14:10;101748.28;;;17.47;100.00
24788;BME280;12883;52.662;5.196;2023-06-14T04:16:35;101755.00;;;17.56;100.00
24788;BME280;12883;52.662;5.196;2023-06-14T04:19:00;101763.50;;;17.53;100.00
24788;BME280;12883;52.662;5.196;2023-06-14T04:21:26;101774.59;;;17.56;100.00
24788;BME280;12883;52.662;5.196;2023-06-14T04:23:53;101757.75;;;17.49;100.00
24788;BME280;12883;52.662;5.196;2023-06-14T04:26:21;101762.44;;;17.54;100.00
24788;BME280;12883;52.662;5.196;2023-06-14T04:28:46;101732.25;;;17.34;100.00
24788;BME280;12883;52.662;5.196;2023-06-14T04:31:12;101755.50;;;17.46;100.00
24788;BME280;12883;52.662;5.196;2023-06-14T04:33:37;101767.94;;;17.59;100.00
24788;BME280;12883;52.662;5.196;2023-06-14T04:36:11;101762.44;;;17.54;100.00
24788;BME280;12883;52.662;5.196;2023-06-14T04:38:38;101771.47;;;17.59;100.00
24788;BME280;12883;52.662;5.196;2023-06-14T04:41:03;101774.31;;;17.64;100.00
24788;BME280;12883;52.662;5.196;2023-06-14T04:43:28;101762.59;;;17.59;100.00
24788;BME280;12883;52.662;5.196;2023-06-14T04:45:54;101776.91;;;17.71;100.00
24788;BME280;12883;52.662;5.196;2023-06-14T04:48:22;101779.56;;;17.77;100.00
24788;BME280;12883;52.662;5.196;2023-06-14T04:50:48;101786.84;;;17.88;100.00
24788;BME280;12883;52.662;5.196;2023-06-14T04:53:18;101775.97;;;17.83;100.00
24788;BME280;12883;52.662;5.196;2023-06-14T04:55:46;101748.66;;;17.68;100.00
24788;BME280;12883;52.662;5.196;2023-06-14T04:58:12;101788.28;;;17.91;100.00
24788;BME280;12883;52.662;5.196;2023-06-14T05:00:38;101784.56;;;17.92;100.00
24788;BME280;12883;52.662;5.196;2023-06-14T05:03:03;101759.94;;;17.77;100.00
24788;BME280;12883;52.662;5.196;2023-06-14T05:05:31;101784.94;;;17.95;100.00
24788;BME280;12883;52.662;5.196;2023-06-14T05:07:56;101775.81;;;17.96;100.00
24788;BME280;12883;52.662;5.196;2023-06-14T05:10:21;101767.31;;;17.81;100.00
24788;BME280;12883;52.662;5.196;2023-06-14T05:12:46;101775.38;;;17.99;100.00
24788;BME280;12883;52.662;5.196;2023-06-14T05:15:13;101796.13;;;18.10;100.00
24788;BME280;12883;52.662;5.196;2023-06-14T05:17:38;101780.59;;;18.12;100.00
24788;BME280;12883;52.662;5.196;2023-06-14T05:20:06;101796.44;;;18.20;100.00
24788;BME280;12883;52.662;5.196;2023-06-14T05:22:31;101787.69;;;18.25;100.00
24788;BME280;12883;52.662;5.196;2023-06-14T05:24:57;101797.34;;;18.32;100.00
24788;BME280;12883;52.662;5.196;2023-06-14T05:27:22;101795.88;;;18.48;100.00
24788;BME280;12883;52.662;5.196;2023-06-14T05:29:47;101796.25;;;18.51;100.00
24788;BME280;12883;52.662;5.196;2023-06-14T05:32:13;101801.03;;;18.49;100.00
24788;BME280;12883;52.662;5.196;2023-06-14T05:34:38;101780.13;;;18.51;100.00
24788;BME280;12883;52.662;5.196;2023-06-14T05:37:04;101792.97;;;18.67;100.00
24788;BME280;12883;52.662;5.196;2023-06-14T05:39:29;101797.66;;;18.72;100.00
24788;BME280;12883;52.662;5.196;2023-06-14T05:41:55;101798.53;;;18.84;100.00
24788;BME280;12883;52.662;5.196;2023-06-14T05:44:20;101795.59;;;18.97;100.00
24788;BME280;12883;52.662;5.196;2023-06-14T05:46:45;101807.59;;;19.12;100.00
24788;BME280;12883;52.662;5.196;2023-06-14T05:49:11;101804.44;;;19.15;100.00
24788;BME280;12883;52.662;5.196;2023-06-14T05:51:37;101796.13;;;19.17;100.00
24788;BME280;12883;52.662;5.196;2023-06-14T05:54:02;101811.75;;;19.26;100.00
24788;BME280;12883;52.662;5.196;2023-06-14T05:56:28;101793.75;;;19.50;100.00
24788;BME280;12883;52.662;5.196;2023-06-14T05:58:53;101799.34;;;19.25;100.00
24788;BME280;12883;52.662;5.196;2023-06-14T06:01:19;101811.75;;;19.49;100.00
24788;BME280;12883;52.662;5.196;2023-06-14T06:03:45;101804.38;;;19.56;100.00
24788;BME280;12883;52.662;5.196;2023-06-14T06:06:11;101807.81;;;19.63;100.00
24788;BME280;12883;52.662;5.196;2023-06-14T06:08:37;101806.84;;;19.69;100.00
24788;BME280;12883;52.662;5.196;2023-06-14T06:11:02;101794.78;;;19.72;100.00
24788;BME280;12883;52.662;5.196;2023-06-14T06:13:28;101816.59;;;19.93;100.00
24788;BME280;12883;52.662;5.196;2023-06-14T06:15:53;101819.28;;;19.93;100.00
24788;BME280;12883;52.662;5.196;2023-06-14T06:18:18;101815.16;;;20.02;100.00
24788;BME280;12883;52.662;5.196;2023-06-14T06:20:44;101824.88;;;20.03;100.00
24788;BME280;12883;52.662;5.196;2023-06-14T06:23:09;101820.22;;;20.10;100.00
24788;BME280;12883;52.662;5.196;2023-06-14T06:25:35;101822.06;;;20.21;100.00
24788;BME280;12883;52.662;5.196;2023-06-14T06:28:00;101825.56;;;20.33;100.00
24788;BME280;12883;52.662;5.196;2023-06-14T06:30:26;101823.22;;;20.25;100.00
24788;BME280;12883;52.662;5.196;2023-06-14T06:32:51;101823.09;;;20.32;99.66
24788;BME280;12883;52.662;5.196;2023-06-14T06:35:18;101836.25;;;20.28;99.09
24788;BME280;12883;52.662;5.196;2023-06-14T06:37:43;101832.34;;;20.36;100.00
24788;BME280;12883;52.662;5.196;2023-06-14T06:40:09;101830.47;;;20.36;100.00
24788;BME280;12883;52.662;5.196;2023-06-14T06:42:35;101833.19;;;20.36;99.79
24788;BME280;12883;52.662;5.196;2023-06-14T06:45:01;101833.47;;;20.51;100.00
24788;BME280;12883;52.662;5.196;2023-06-14T06:47:26;101816.97;;;20.48;98.97
24788;BME280;12883;52.662;5.196;2023-06-14T06:49:52;101838.75;;;20.58;96.12
24788;BME280;12883;52.662;5.196;2023-06-14T06:52:17;101850.56;;;20.68;99.40
24788;BME280;12883;52.662;5.196;2023-06-14T06:54:43;101852.53;;;20.72;98.78
24788;BME280;12883;52.662;5.196;2023-06-14T06:57:08;101852.88;;;20.76;98.57
24788;BME280;12883;52.662;5.196;2023-06-14T06:59:34;101835.22;;;20.85;98.75
24788;BME280;12883;52.662;5.196;2023-06-14T07:02:00;101829.88;;;20.73;94.47
24788;BME280;12883;52.662;5.196;2023-06-14T07:04:25;101846.59;;;20.98;97.96
24788;BME280;12883;52.662;5.196;2023-06-14T07:06:51;101843.63;;;21.00;95.43
24788;BME280;12883;52.662;5.196;2023-06-14T07:09:16;101821.88;;;20.90;95.47
24788;BME280;12883;52.662;5.196;2023-06-14T07:11:43;101855.78;;;21.14;93.70
24788;BME280;12883;52.662;5.196;2023-06-14T07:14:09;101858.72;;;21.29;93.17
24788;BME280;12883;52.662;5.196;2023-06-14T07:16:34;101855.13;;;21.23;89.96
24788;BME280;12883;52.662;5.196;2023-06-14T07:19:01;101836.88;;;21.14;87.09
24788;BME280;12883;52.662;5.196;2023-06-14T07:21:27;101827.47;;;21.16;89.10
24788;BME280;12883;52.662;5.196;2023-06-14T07:23:53;101859.16;;;21.54;90.31
24788;BME280;12883;52.662;5.196;2023-06-14T07:26:19;101862.63;;;21.49;89.00
24788;BME280;12883;52.662;5.196;2023-06-14T07:28:44;101865.50;;;21.43;84.61
24788;BME280;12883;52.662;5.196;2023-06-14T07:31:10;101823.28;;;21.25;85.76
24788;BME280;12883;52.662;5.196;2023-06-14T07:33:35;101863.78;;;21.53;84.47
24788;BME280;12883;52.662;5.196;2023-06-14T07:36:01;101865.34;;;21.66;86.86
24788;BME280;12883;52.662;5.196;2023-06-14T07:38:26;101869.03;;;21.76;85.76
24788;BME280;12883;52.662;5.196;2023-06-14T07:40:52;101861.06;;;21.70;84.26
24788;BME280;12883;52.662;5.196;2023-06-14T07:43:17;101860.59;;;21.73;84.44
24788;BME280;12883;52.662;5.196;2023-06-14T07:45:42;101877.56;;;21.85;82.15
24788;BME280;12883;52.662;5.196;2023-06-14T07:48:09;101862.00;;;21.75;81.87
24788;BME280;12883;52.662;5.196;2023-06-14T07:50:34;101864.69;;;21.92;82.89
24788;BME280;12883;52.662;5.196;2023-06-14T07:52:59;101880.91;;;21.92;83.60
24788;BME280;12883;52.662;5.196;2023-06-14T07:55:25;101855.81;;;21.96;82.89
24788;BME280;12883;52.662;5.196;2023-06-14T07:57:50;101879.22;;;22.07;80.70
24788;BME280;12883;52.662;5.196;2023-06-14T08:00:16;101887.19;;;22.14;80.38
24788;BME280;12883;52.662;5.196;2023-06-14T08:02:43;101895.94;;;22.21;78.81
24788;BME280;12883;52.662;5.196;2023-06-14T08:05:10;101889.09;;;22.35;78.24
24788;BME280;12883;52.662;5.196;2023-06-14T08:07:39;101880.13;;;22.51;78.32
24788;BME280;12883;52.662;5.196;2023-06-14T08:10:05;101889.00;;;22.46;77.35
24788;BME280;12883;52.662;5.196;2023-06-14T08:12:31;101899.34;;;22.33;74.80
24788;BME280;12883;52.662;5.196;2023-06-14T08:14:56;101884.91;;;22.44;74.59
24788;BME280;12883;52.662;5.196;2023-06-14T08:17:22;101893.75;;;22.39;74.99
24788;BME280;12883;52.662;5.196;2023-06-14T08:19:47;101896.28;;;22.46;74.26
24788;BME280;12883;52.662;5.196;2023-06-14T08:22:13;101900.06;;;22.45;72.67
24788;BME280;12883;52.662;5.196;2023-06-14T08:24:38;101891.78;;;22.51;75.48
24788;BME280;12883;52.662;5.196;2023-06-14T08:27:06;101899.84;;;22.68;75.58
24788;BME280;12883;52.662;5.196;2023-06-14T08:29:31;101907.19;;;22.72;75.18
24788;BME280;12883;52.662;5.196;2023-06-14T08:31:56;101893.84;;;22.66;73.40
24788;BME280;12883;52.662;5.196;2023-06-14T08:34:22;101905.81;;;22.70;73.09
24788;BME280;12883;52.662;5.196;2023-06-14T08:36:50;101907.56;;;22.81;74.09
24788;BME280;12883;52.662;5.196;2023-06-14T08:39:15;101913.28;;;22.84;76.16
24788;BME280;12883;52.662;5.196;2023-06-14T08:41:42;101889.72;;;23.06;73.13
24788;BME280;12883;52.662;5.196;2023-06-14T08:44:10;101904.03;;;23.02;72.23
24788;BME280;12883;52.662;5.196;2023-06-14T08:46:36;101905.19;;;23.11;71.30
24788;BME280;12883;52.662;5.196;2023-06-14T08:49:02;101901.00;;;23.20;71.94
24788;BME280;12883;52.662;5.196;2023-06-14T08:51:31;101908.88;;;23.21;70.68
24788;BME280;12883;52.662;5.196;2023-06-14T08:54:02;101906.78;;;23.07;70.61
24788;BME280;12883;52.662;5.196;2023-06-14T08:56:29;101897.19;;;23.21;70.51
24788;BME280;12883;52.662;5.196;2023-06-14T08:58:57;101902.81;;;23.14;68.55
24788;BME280;12883;52.662;5.196;2023-06-14T09:01:23;101900.53;;;23.28;69.59
24788;BME280;12883;52.662;5.196;2023-06-14T09:03:50;101874.78;;;23.04;68.31
24788;BME280;12883;52.662;5.196;2023-06-14T09:06:16;101906.00;;;23.33;69.98
24788;BME280;12883;52.662;5.196;2023-06-14T09:08:43;101893.59;;;23.42;69.76
24788;BME280;12883;52.662;5.196;2023-06-14T09:11:12;101907.13;;;23.37;69.27
24788;BME280;12883;52.662;5.196;2023-06-14T09:13:38;101908.97;;;23.31;68.69
24788;BME280;12883;52.662;5.196;2023-06-14T09:16:04;101906.53;;;23.30;68.87
24788;BME280;12883;52.662;5.196;2023-06-14T09:18:40;101909.06;;;23.41;69.90
24788;BME280;12883;52.662;5.196;2023-06-14T09:21:10;101903.06;;;23.39;69.00
24788;BME280;12883;52.662;5.196;2023-06-14T09:23:40;101915.47;;;23.62;69.47
24788;BME280;12883;52.662;5.196;2023-06-14T09:26:10;101919.13;;;23.77;68.86
24788;BME280;12883;52.662;5.196;2023-06-14T09:28:36;101915.78;;;23.65;68.85
24788;BME280;12883;52.662;5.196;2023-06-14T09:31:07;101902.44;;;23.59;68.30
24788;BME280;12883;52.662;5.196;2023-06-14T09:33:34;101906.09;;;23.74;69.87
24788;BME280;12883;52.662;5.196;2023-06-14T09:35:59;101873.56;;;23.43;66.69
24788;BME280;12883;52.662;5.196;2023-06-14T09:38:25;101882.34;;;23.55;67.76
24788;BME280;12883;52.662;5.196;2023-06-14T09:40:51;101913.00;;;23.87;68.35
24788;BME280;12883;52.662;5.196;2023-06-14T09:43:16;101876.88;;;23.50;68.37
24788;BME280;12883;52.662;5.196;2023-06-14T09:45:44;101905.53;;;23.72;68.46
24788;BME280;12883;52.662;5.196;2023-06-14T09:48:11;101917.81;;;23.80;67.30
24788;BME280;12883;52.662;5.196;2023-06-14T09:50:37;101919.91;;;23.73;65.50
24788;BME280;12883;52.662;5.196;2023-06-14T09:53:10;101924.88;;;23.81;65.36
24788;BME280;12883;52.662;5.196;2023-06-14T09:55:36;101918.59;;;23.80;66.71
24788;BME280;12883;52.662;5.196;2023-06-14T09:58:05;101914.19;;;24.01;67.01
24788;BME280;12883;52.662;5.196;2023-06-14T10:00:32;101881.28;;;23.87;66.27
24788;BME280;12883;52.662;5.196;2023-06-14T10:03:04;101917.50;;;24.08;66.50
24788;BME280;12883;52.662;5.196;2023-06-14T10:05:32;101910.50;;;24.17;66.86
24788;BME280;12883;52.662;5.196;2023-06-14T10:08:08;101914.06;;;24.22;67.14
24788;BME280;12883;52.662;5.196;2023-06-14T10:10:34;101918.47;;;24.33;66.53
24788;BME280;12883;52.662;5.196;2023-06-14T10:13:00;101913.16;;;24.07;65.72
24788;BME280;12883;52.662;5.196;2023-06-14T10:23:20;101895.72;;;24.39;62.55
24788;BME280;12883;52.662;5.196;2023-06-14T10:25:49;101888.56;;;24.23;61.90
24788;BME280;12883;52.662;5.196;2023-06-14T10:28:16;101904.69;;;24.45;60.76
24788;BME280;12883;52.662;5.196;2023-06-14T10:31:01;101911.75;;;24.46;60.71
24788;BME280;12883;52.662;5.196;2023-06-14T10:33:27;101916.66;;;24.54;60.07
24788;BME280;12883;52.662;5.196;2023-06-14T10:36:07;101915.09;;;24.58;60.94
24788;BME280;12883;52.662;5.196;2023-06-14T10:38:33;101912.94;;;24.60;61.63
24788;BME280;12883;52.662;5.196;2023-06-14T10:40:59;101907.03;;;24.73;63.07
24788;BME280;12883;52.662;5.196;2023-06-14T10:43:25;101912.69;;;24.71;60.57
24788;BME280;12883;52.662;5.196;2023-06-14T10:46:16;101918.66;;;24.63;58.29
24788;BME280;12883;52.662;5.196;2023-06-14T10:48:48;101891.69;;;24.52;58.83
24788;BME280;12883;52.662;5.196;2023-06-14T10:51:18;101906.97;;;24.58;57.80
24788;BME280;12883;52.662;5.196;2023-06-14T10:53:46;101917.09;;;24.72;58.24
24788;BME280;12883;52.662;5.196;2023-06-14T10:58:54;101907.56;;;24.70;57.71
24788;BME280;12883;52.662;5.196;2023-06-14T11:01:31;101911.38;;;24.69;57.86
24788;BME280;12883;52.662;5.196;2023-06-14T11:04:06;101875.66;;;24.50;57.16
24788;BME280;12883;52.662;5.196;2023-06-14T11:06:50;101899.34;;;24.60;58.17
24788;BME280;12883;52.662;5.196;2023-06-14T11:12:03;101896.19;;;24.78;58.93
24788;BME280;12883;52.662;5.196;2023-06-14T11:14:30;101895.63;;;24.76;58.24
24788;BME280;12883;52.662;5.196;2023-06-14T11:16:56;101866.81;;;24.65;58.22
24788;BME280;12883;52.662;5.196;2023-06-14T11:19:21;101895.44;;;24.92;59.23
24788;BME280;12883;52.662;5.196;2023-06-14T11:21:48;101908.16;;;24.87;58.26
24788;BME280;12883;52.662;5.196;2023-06-14T11:24:13;101894.84;;;24.90;60.47
24788;BME280;12883;52.662;5.196;2023-06-14T11:26:40;101900.03;;;25.02;57.80
24788;BME280;12883;52.662;5.196;2023-06-14T11:29:05;101873.44;;;25.04;60.36
24788;BME280;12883;52.662;5.196;2023-06-14T11:31:31;101889.22;;;25.22;58.43
24788;BME280;12883;52.662;5.196;2023-06-14T11:33:58;101894.44;;;25.28;57.29
24788;BME280;12883;52.662;5.196;2023-06-14T11:36:26;101862.28;;;25.05;56.53
24788;BME280;12883;52.662;5.196;2023-06-14T11:38:59;101902.84;;;25.27;57.41
24788;BME280;12883;52.662;5.196;2023-06-14T11:41:25;101885.75;;;25.41;57.44
24788;BME280;12883;52.662;5.196;2023-06-14T11:43:53;101838.66;;;25.16;58.16
24788;BME280;12883;52.662;5.196;2023-06-14T11:46:19;101898.53;;;25.31;56.40
24788;BME280;12883;52.662;5.196;2023-06-14T11:48:49;101892.81;;;25.37;56.25
24788;BME280;12883;52.662;5.196;2023-06-14T11:51:14;101894.44;;;25.28;55.56
24788;BME280;12883;52.662;5.196;2023-06-14T11:53:42;101882.19;;;25.51;56.96
24788;BME280;12883;52.662;5.196;2023-06-14T11:56:08;101896.34;;;25.48;57.38
24788;BME280;12883;52.662;5.196;2023-06-14T11:58:34;101884.13;;;25.45;57.40
24788;BME280;12883;52.662;5.196;2023-06-14T12:00:59;101882.19;;;25.51;59.11
24788;BME280;12883;52.662;5.196;2023-06-14T12:03:25;101879.47;;;25.51;58.67
24788;BME280;12883;52.662;5.196;2023-06-14T12:06:10;101874.59;;;25.33;57.22
24788;BME280;12883;52.662;5.196;2023-06-14T12:08:37;101886.56;;;25.47;56.71
24788;BME280;12883;52.662;5.196;2023-06-14T12:11:14;101875.41;;;25.53;57.52
24788;BME280;12883;52.662;5.196;2023-06-14T12:13:41;101836.53;;;25.28;56.60
24788;BME280;12883;52.662;5.196;2023-06-14T12:16:11;101880.84;;;25.53;56.18
24788;BME280;12883;52.662;5.196;2023-06-14T12:18:37;101890.91;;;25.63;57.32
24788;BME280;12883;52.662;5.196;2023-06-14T12:21:07;101887.09;;;25.34;55.07
24788;BME280;12883;52.662;5.196;2023-06-14T12:23:52;101891.19;;;25.51;53.89
24788;BME280;12883;52.662;5.196;2023-06-14T12:26:19;101890.94;;;25.73;55.15
24788;BME280;12883;52.662;5.196;2023-06-14T12:28:45;101888.22;;;25.58;53.96
24788;BME280;12883;52.662;5.196;2023-06-14T12:31:11;101888.47;;;25.56;53.32
24788;BME280;12883;52.662;5.196;2023-06-14T12:33:40;101893.63;;;25.78;55.15
24788;BME280;12883;52.662;5.196;2023-06-14T12:36:07;101890.69;;;25.89;55.37
24788;BME280;12883;52.662;5.196;2023-06-14T12:38:33;101893.09;;;26.01;55.00
24788;BME280;12883;52.662;5.196;2023-06-14T12:40:58;101894.16;;;26.05;55.15
24788;BME280;12883;52.662;5.196;2023-06-14T12:43:24;101895.28;;;25.79;54.13
24788;BME280;12883;52.662;5.196;2023-06-14T12:45:49;101895.81;;;25.76;57.53
24788;BME280;12883;52.662;5.196;2023-06-14T12:48:14;101889.28;;;25.77;57.16
24788;BME280;12883;52.662;5.196;2023-06-14T12:50:40;101883.03;;;25.91;56.37
24788;BME280;12883;52.662;5.196;2023-06-14T12:53:06;101880.59;;;25.75;54.29
24788;BME280;12883;52.662;5.196;2023-06-14T12:55:32;101882.47;;;25.84;56.03
24788;BME280;12883;52.662;5.196;2023-06-14T12:57:57;101871.06;;;25.77;53.42
24788;BME280;12883;52.662;5.196;2023-06-14T13:00:23;101886.56;;;25.97;55.81